createdAt,value
2023-01-28T10:44:00.590Z,49.74
2023-01-28T10:46:10.927Z,55.86
2023-01-28T10:48:23.191Z,59.51
2023-01-28T10:50:30.566Z,60.03
2023-01-28T10:52:35.735Z,59.90
2023-01-28T10:54:40.735Z,60.96
2023-01-28T10:56:47.098Z,61.09
2023-01-28T10:59:01.597Z,60.80
2023-01-28T11:01:11.436Z,61.46
2023-01-28T11:03:23.919Z,61.64
2023-01-28T11:05:30.974Z,61.51
2023-01-28T11:07:36.637Z,60.48
2023-01-28T11:09:41.855Z,60.66
2023-01-28T11:11:46.862Z,60.57
2023-01-28T11:13:54.528Z,60.44
2023-01-28T11:16:05.531Z,60.81
2023-01-28T11:18:24.879Z,60.63
2023-01-28T11:20:36.101Z,60.33
2023-01-28T11:22:48.707Z,61.07
2023-01-28T11:24:54.533Z,60.01
2023-01-28T11:27:02.309Z,59.79
2023-01-28T11:29:09.413Z,59.98
2023-01-28T11:31:19.938Z,59.80
2023-01-28T11:33:29.291Z,59.97
2023-01-28T11:35:35.315Z,59.00
2023-01-28T11:37:40.946Z,59.25
2023-01-28T11:39:49.017Z,59.39
2023-01-28T11:41:55.920Z,59.55
2023-01-28T11:44:02.462Z,60.72
2023-01-28T11:46:29.044Z,59.51
2023-01-28T11:48:47.751Z,59.64
2023-01-28T11:50:59.755Z,60.27
2023-01-28T11:53:25.772Z,58.87
2023-01-28T11:55:48.735Z,58.49
2023-01-28T11:58:06.555Z,58.10
2023-01-28T12:00:38.138Z,58.89
2023-01-28T12:02:54.139Z,59.29
2023-01-28T12:05:20.625Z,58.32
2023-01-28T12:07:40.553Z,58.83
2023-01-28T12:09:55.495Z,58.36
2023-01-28T12:12:15.204Z,59.39
2023-01-28T12:14:30.841Z,58.63
2023-01-28T12:16:57.076Z,57.65
2023-01-28T12:19:23.236Z,58.06
2023-01-28T12:21:40.016Z,57.66
2023-01-28T12:24:03.549Z,57.92
2023-01-28T12:26:17.602Z,57.91
2023-01-28T12:28:35.751Z,56.89
2023-01-28T12:30:55.361Z,56.96
2023-01-28T12:33:17.591Z,56.80
2023-01-28T12:35:36.622Z,56.44
2023-01-28T12:37:56.620Z,56.33
2023-01-28T12:40:20.719Z,56.61
2023-01-28T12:42:34.621Z,55.10
2023-01-28T12:44:46.623Z,55.80
2023-01-28T12:46:57.436Z,56.09
2023-01-28T12:49:08.582Z,57.09
2023-01-28T12:51:23.374Z,56.13
2023-01-28T12:53:35.756Z,56.14
2023-01-28T12:55:46.691Z,57.00
2023-01-28T12:57:53.720Z,56.29
2023-01-28T13:00:21.903Z,56.73
2023-01-28T13:02:30.368Z,56.73
2023-01-28T13:04:43.275Z,56.81
2023-01-28T13:06:59.304Z,56.86
2023-01-28T13:09:13.715Z,56.64
2023-01-28T13:11:22.872Z,56.72
2023-01-28T13:13:33.982Z,56.02
2023-01-28T13:15:43.047Z,55.50
2023-01-28T13:17:57.848Z,55.38
2023-01-28T13:20:04.719Z,56.48
2023-01-28T13:22:31.743Z,55.71
2023-01-28T13:24:36.662Z,55.61
2023-01-28T13:26:48.090Z,55.23
2023-01-28T13:28:54.498Z,56.10
2023-01-28T13:31:06.710Z,56.14
2023-01-28T13:33:32.383Z,54.08
2023-01-28T13:35:40.675Z,55.27
2023-01-28T13:37:51.940Z,54.73
2023-01-28T13:40:05.354Z,54.32
2023-01-28T13:42:29.170Z,55.90
2023-01-28T13:44:37.469Z,55.99
2023-01-28T13:46:42.681Z,54.94
2023-01-28T13:48:52.371Z,53.42
2023-01-28T13:50:58.794Z,54.17
2023-01-28T13:53:20.630Z,55.60
2023-01-28T13:55:42.833Z,54.93
2023-01-28T13:58:22.777Z,55.14
2023-01-28T14:00:32.561Z,56.24
2023-01-28T14:02:58.592Z,55.92
2023-01-28T14:05:36.519Z,56.14
2023-01-28T14:07:59.193Z,55.53
2023-01-28T14:10:25.747Z,54.31
2023-01-28T14:12:52.281Z,55.29
2023-01-28T14:15:12.409Z,55.04
2023-01-28T14:17:31.581Z,54.96
2023-01-28T14:19:41.675Z,56.12
2023-01-28T14:21:46.689Z,56.14
2023-01-28T14:23:54.147Z,55.84
2023-01-28T14:26:12.567Z,56.33
2023-01-28T14:28:23.806Z,56.96
2023-01-28T14:30:36.214Z,57.68
2023-01-28T14:32:52.854Z,57.55
2023-01-28T14:34:59.593Z,56.11
2023-01-28T14:37:10.595Z,55.18
2023-01-28T14:39:21.992Z,56.72
2023-01-28T14:41:31.519Z,56.56
2023-01-28T14:43:36.859Z,55.78
2023-01-28T14:46:00.497Z,57.02
2023-01-28T14:48:28.489Z,55.37
2023-01-28T14:50:46.711Z,56.39
2023-01-28T14:53:13.088Z,56.42
2023-01-28T14:55:36.161Z,55.93
2023-01-28T14:57:53.311Z,56.72
2023-01-28T15:00:01.831Z,57.20
2023-01-28T15:02:20.152Z,56.68
2023-01-28T15:04:30.016Z,56.40
2023-01-28T15:06:38.793Z,56.07
2023-01-28T15:08:43.768Z,57.56
2023-01-28T15:10:49.209Z,57.00
2023-01-28T15:13:01.539Z,57.91
2023-01-28T15:15:17.439Z,57.18
2023-01-28T15:17:29.674Z,57.71
2023-01-28T15:19:40.106Z,57.99
2023-01-28T15:21:46.942Z,57.24
2023-01-28T15:23:54.874Z,57.20
2023-01-28T15:26:07.304Z,58.18
2023-01-28T15:28:24.695Z,59.02
2023-01-28T15:30:33.015Z,59.87
2023-01-28T15:32:39.465Z,59.94
2023-01-28T15:34:52.125Z,59.18
2023-01-28T15:36:57.191Z,59.84
2023-01-28T15:39:03.471Z,59.73
2023-01-28T15:41:11.906Z,60.22
2023-01-28T15:43:24.901Z,60.09
2023-01-28T15:45:32.913Z,59.29
2023-01-28T15:47:40.938Z,59.30
2023-01-28T15:49:48.787Z,59.04
2023-01-28T15:51:54.775Z,59.20
2023-01-28T15:54:04.785Z,60.08
2023-01-28T15:56:12.313Z,60.04
2023-01-28T15:58:30.457Z,60.46
2023-01-28T16:00:36.384Z,60.89
2023-01-28T16:02:47.040Z,60.27
2023-01-28T16:05:03.437Z,61.05
2023-01-28T16:07:08.621Z,60.54
2023-01-28T16:09:24.774Z,60.98
2023-01-28T16:11:33.726Z,61.30
2023-01-28T16:13:46.873Z,62.15
2023-01-28T16:15:56.035Z,61.57
2023-01-28T16:18:00.982Z,61.85
2023-01-28T16:20:16.559Z,61.98
2023-01-28T16:22:24.972Z,62.28
2023-01-28T16:24:33.183Z,63.25
2023-01-28T16:26:40.983Z,63.52
2023-01-28T16:28:49.188Z,63.71
2023-01-28T16:30:54.172Z,63.88
2023-01-28T16:33:00.427Z,64.32
2023-01-28T16:35:07.176Z,64.26
2023-01-28T16:37:13.811Z,64.80
2023-01-28T16:39:19.256Z,64.75
2023-01-28T16:41:31.665Z,65.21
2023-01-28T16:43:36.795Z,64.71
2023-01-28T16:45:46.510Z,65.42
2023-01-28T16:47:52.081Z,65.47
2023-01-28T16:49:57.439Z,65.67
2023-01-28T16:52:04.099Z,66.69
2023-01-28T16:54:09.781Z,66.07
2023-01-28T16:56:30.443Z,65.68
2023-01-28T16:58:41.117Z,65.93
2023-01-28T17:00:48.902Z,65.95
2023-01-28T17:02:55.464Z,66.16
2023-01-28T17:05:03.485Z,66.27
2023-01-28T17:07:12.423Z,66.59
2023-01-28T17:09:18.609Z,66.30
2023-01-28T17:11:23.640Z,66.66
2023-01-28T17:13:29.186Z,67.14
2023-01-28T17:15:34.925Z,66.85
2023-01-28T17:17:43.502Z,67.57
2023-01-28T17:19:56.667Z,67.98
2023-01-28T17:22:01.687Z,67.90
2023-01-28T17:24:10.741Z,67.98
2023-01-28T17:26:17.435Z,66.79
2023-01-28T17:28:24.976Z,66.82
2023-01-28T17:30:30.100Z,67.10
2023-01-28T17:32:36.524Z,66.94
2023-01-28T17:34:50.383Z,67.28
2023-01-28T17:36:57.646Z,67.11
2023-01-28T17:39:11.288Z,66.98
2023-01-28T17:41:17.782Z,67.16
2023-01-28T17:43:22.745Z,67.13
2023-01-28T17:45:27.880Z,67.59
2023-01-28T17:47:34.006Z,67.18
2023-01-28T17:49:39.356Z,67.29
2023-01-28T17:51:48.763Z,67.50
2023-01-28T17:53:56.822Z,67.52
2023-01-28T17:56:02.013Z,67.51
2023-01-28T17:58:07.347Z,67.78
2023-01-28T18:00:16.348Z,68.22
2023-01-28T18:02:23.991Z,68.29
2023-01-28T18:04:28.831Z,68.56
2023-01-28T18:06:35.881Z,68.44
2023-01-28T18:08:44.200Z,68.41
2023-01-28T18:10:51.290Z,69.20
2023-01-28T18:12:56.536Z,69.00
2023-01-28T18:15:01.535Z,69.21
2023-01-28T18:17:07.435Z,68.97
2023-01-28T18:19:12.406Z,68.83
2023-01-28T18:21:53.844Z,69.19
2023-01-28T18:24:01.579Z,69.10
2023-01-28T18:26:08.597Z,69.18
2023-01-28T18:28:14.051Z,68.62
2023-01-28T18:30:19.716Z,68.71
2023-01-28T18:32:25.442Z,69.03
2023-01-28T18:34:32.057Z,68.42
2023-01-28T18:36:38.565Z,68.48
2023-01-28T18:38:43.512Z,69.03
2023-01-28T18:40:58.058Z,69.24
2023-01-28T18:43:04.319Z,69.43
2023-01-28T18:45:10.680Z,69.29
2023-01-28T18:47:18.963Z,69.58
2023-01-28T18:49:23.909Z,69.88
2023-01-28T18:51:30.652Z,70.40
2023-01-28T18:53:40.613Z,69.59
2023-01-28T18:55:45.628Z,69.38
2023-01-28T18:57:53.550Z,70.00
2023-01-28T18:59:58.612Z,70.55
2023-01-28T19:02:04.668Z,70.48
2023-01-28T19:04:15.922Z,70.73
2023-01-28T19:06:21.049Z,71.34
2023-01-28T19:08:28.833Z,70.83
2023-01-28T19:10:33.918Z,70.86
2023-01-28T19:12:39.515Z,71.16
2023-01-28T19:14:47.747Z,71.55
2023-01-28T19:16:52.620Z,71.72
2023-01-28T19:19:00.775Z,71.54
2023-01-28T19:21:06.192Z,71.86
2023-01-28T19:23:12.991Z,71.95
2023-01-28T19:25:18.850Z,72.09
2023-01-28T19:27:23.717Z,72.05
2023-01-28T19:29:29.631Z,72.36
2023-01-28T19:31:37.654Z,72.13
2023-01-28T19:33:42.853Z,72.48
2023-01-28T19:35:50.536Z,72.38
2023-01-28T19:37:55.404Z,73.21
2023-01-28T19:40:00.331Z,72.43
2023-01-28T19:42:07.790Z,72.73
2023-01-28T19:44:13.655Z,73.39
2023-01-28T19:46:22.132Z,72.67
2023-01-28T19:48:29.657Z,73.83
2023-01-28T19:50:35.338Z,73.73
2023-01-28T19:52:41.577Z,73.56
2023-01-28T19:54:46.571Z,74.10
2023-01-28T19:56:51.920Z,74.26
2023-01-28T19:58:57.888Z,74.19
2023-01-28T20:01:07.883Z,74.60
2023-01-28T20:03:16.535Z,74.17
2023-01-28T20:05:26.149Z,74.02
2023-01-28T20:07:31.353Z,74.08
2023-01-28T20:09:36.558Z,74.35
2023-01-28T20:11:42.630Z,74.61
2023-01-28T20:13:49.789Z,75.33
2023-01-28T20:15:54.715Z,74.64
2023-01-28T20:18:05.059Z,75.08
2023-01-28T20:20:12.618Z,75.14
2023-01-28T20:22:20.662Z,74.77
2023-01-28T20:24:25.543Z,74.43
2023-01-28T20:26:32.578Z,75.61
2023-01-28T20:28:37.511Z,75.48
2023-01-28T20:30:44.734Z,75.00
2023-01-28T20:32:49.593Z,75.01
2023-01-28T20:34:55.691Z,75.29
2023-01-28T20:37:00.604Z,75.18
2023-01-28T20:39:09.432Z,75.46
2023-01-28T20:41:17.549Z,75.06
2023-01-28T20:43:22.761Z,75.33
2023-01-28T20:45:27.568Z,75.70
2023-01-28T20:47:32.469Z,75.29
2023-01-28T20:49:37.288Z,75.31
2023-01-28T20:51:42.451Z,75.11
2023-01-28T20:53:49.716Z,75.73
2023-01-28T20:56:05.527Z,75.92
2023-01-28T20:58:10.969Z,76.30
2023-01-28T21:00:18.564Z,75.89
2023-01-28T21:02:24.105Z,76.01
2023-01-28T21:04:29.921Z,75.57
2023-01-28T21:06:37.039Z,76.28
2023-01-28T21:08:41.967Z,76.43
2023-01-28T21:10:47.100Z,76.34
2023-01-28T21:12:57.653Z,76.68
2023-01-28T21:15:02.567Z,76.48
2023-01-28T21:17:07.564Z,76.51
2023-01-28T21:19:12.622Z,76.51
2023-01-28T21:21:21.789Z,77.53
2023-01-28T21:23:28.028Z,77.03
2023-01-28T21:25:35.921Z,77.06
2023-01-28T21:27:41.176Z,77.26
2023-01-28T21:29:48.982Z,77.07
2023-01-28T21:31:54.186Z,77.37
2023-01-28T21:34:01.488Z,77.07
2023-01-28T21:36:12.555Z,77.28
2023-01-28T21:38:21.035Z,78.00
2023-01-28T21:40:25.890Z,77.66
2023-01-28T21:42:32.696Z,77.61
2023-01-28T21:44:37.577Z,77.50
2023-01-28T21:46:48.198Z,77.53
2023-01-28T21:48:57.122Z,77.91
2023-01-28T21:51:20.450Z,77.35
2023-01-28T21:53:25.677Z,77.74
2023-01-28T21:55:30.626Z,77.08
2023-01-28T21:57:35.843Z,77.74
2023-01-28T21:59:40.677Z,77.63
2023-01-28T22:01:51.703Z,77.48
2023-01-28T22:03:58.114Z,77.98
2023-01-28T22:06:02.960Z,77.78
2023-01-28T22:08:09.678Z,77.81
2023-01-28T22:10:18.218Z,77.81
2023-01-28T22:12:23.343Z,77.78
2023-01-28T22:14:28.505Z,78.29
2023-01-28T22:16:33.611Z,78.38
2023-01-28T22:18:41.647Z,77.64
2023-01-28T22:20:47.753Z,77.85
2023-01-28T22:22:52.900Z,79.02
2023-01-28T22:24:57.854Z,78.32
2023-01-28T22:27:02.683Z,78.11
2023-01-28T22:29:09.656Z,78.10
2023-01-28T22:31:19.047Z,78.34
2023-01-28T22:33:27.405Z,78.69
2023-01-28T22:35:37.136Z,78.44
2023-01-28T22:37:42.200Z,78.24
2023-01-28T22:39:48.114Z,77.83
2023-01-28T22:41:53.193Z,78.55
2023-01-28T22:43:58.477Z,78.59
2023-01-28T22:46:04.271Z,78.87
2023-01-28T22:48:09.779Z,78.62
2023-01-28T22:50:16.093Z,78.40
2023-01-28T22:52:25.997Z,78.71
2023-01-28T22:54:31.378Z,78.21
2023-01-28T22:56:36.569Z,78.46
2023-01-28T22:58:42.438Z,78.14
2023-01-28T23:00:49.265Z,78.40
2023-01-28T23:02:54.123Z,78.60
2023-01-28T23:04:58.961Z,77.99
2023-01-28T23:07:06.248Z,78.27
2023-01-28T23:09:13.840Z,78.55
2023-01-28T23:11:25.804Z,78.32
2023-01-28T23:13:55.316Z,78.16
2023-01-28T23:16:12.630Z,78.32
2023-01-28T23:18:35.089Z,78.27
2023-01-28T23:20:54.648Z,78.06
2023-01-28T23:23:12.418Z,78.46
2023-01-28T23:25:20.985Z,78.59
2023-01-28T23:27:26.478Z,78.54
2023-01-28T23:29:32.366Z,78.35
2023-01-28T23:31:37.354Z,78.37
2023-01-28T23:33:42.648Z,78.62
2023-01-28T23:35:50.320Z,78.68
2023-01-28T23:37:57.551Z,79.10
2023-01-28T23:40:02.454Z,79.08
2023-01-28T23:42:23.708Z,78.64
2023-01-28T23:44:30.172Z,78.74
2023-01-28T23:46:39.873Z,78.65
2023-01-28T23:48:45.900Z,78.96
2023-01-28T23:50:56.932Z,78.79
2023-01-28T23:53:03.265Z,78.79
2023-01-28T23:55:14.124Z,78.72
2023-01-28T23:57:26.959Z,79.03
2023-01-28T23:59:31.689Z,79.21
